Stations météo

réclame
Mon MeteoGroup
Ayamonte, Espagne (8381): Température de l'air & dewpoint: 16.07.2018 04:00:00 - 22.07.2018 04:00:00 (CEST)Ayamonte, Espagne (8381): Vitesse du vent & gusts: 16.07.2018 04:00:00 - 22.07.2018 04:00:00 (CEST)Ayamonte, Espagne (8381): Direction du vent: 16.07.2018 04:00:00 - 22.07.2018 04:00:00 (CEST)Ayamonte, Espagne (8381): reduced air pressure: 16.07.2018 04:00:00 - 22.07.2018 04:00:00 (CEST)Ayamonte, Espagne (8381): Quantités de précipitations: 16.07.2018 04:00:00 - 22.07.2018 04:00:00 (CEST)
Date & Time tt [°C] td [°C] ff [km/h] ff [knt] fx [km/h] fx [knt] dd ppp [hPa] rr [mm]
22.07.2018 04:00:00 20,2 13,4 12 6 34 18 NNW - 0,0
22.07.2018 03:00:00 21,0 13,2 15 8 35 19 NNW 1012,1 0,0
22.07.2018 02:00:00 22,3 12,5 16 8 37 20 NNW 1012,4 -
22.07.2018 01:00:00 23,8 11,8 13 7 33 18 NNW 1012,3 0,0
22.07.2018 00:00:00 25,3 12,8 13 7 32 17 NNW 1012,4 0,0
21.07.2018 23:00:00 26,7 14,1 11 6 26 14 NNW 1011,9 0,0
21.07.2018 22:00:00 24,3 15,3 4 2 19 10 WSW 1011,1 0,0
21.07.2018 21:00:00 26,6 16,2 12 6 29 15 W 1010,9 0,0
21.07.2018 20:00:00 - - 16 9 38 20 WSW - -
21.07.2018 19:00:00 26,3 16,6 20 11 39 21 WSW 1011,9 0,0
21.07.2018 18:00:00 - - 18 10 29 16 SW - 0,0
21.07.2018 17:00:00 27,1 15,4 16 9 30 16 WSW 1012,4 0,0
21.07.2018 16:00:00 25,8 15,8 19 10 30 16 SW 1013,5 0,0
21.07.2018 15:00:00 25,6 15,0 18 10 29 16 SW 1014,1 0,0
21.07.2018 14:00:00 24,6 15,5 14 8 24 13 SW 1014,6 -
21.07.2018 13:00:00 26,5 15,9 7 4 22 12 NW 1015,0 0,0
21.07.2018 12:00:00 23,4 15,4 10 5 22 12 NNW 1015,1 0,0
21.07.2018 11:00:00 21,9 15,5 8 5 24 13 NW 1015,0 0,0
21.07.2018 10:00:00 19,8 14,8 8 5 26 14 NNW 1015,4 0,0
21.07.2018 09:00:00 18,5 14,6 6 3 27 15 NW 1015,2 0,0
21.07.2018 08:00:00 17,4 13,8 10 6 35 19 NNW 1014,4 -
21.07.2018 07:00:00 17,6 13,6 12 7 29 16 NNW 1014,4 0,0
21.07.2018 06:00:00 17,8 13,6 11 6 32 17 NNW 1014,0 0,0
21.07.2018 05:00:00 18,3 13,4 13 7 37 20 NNW 1013,8 0,0
21.07.2018 04:00:00 19,1 13,5 16 9 37 20 NNW 1014,0 0,0
21.07.2018 03:00:00 20,0 13,5 17 9 38 21 NNW 1014,4 0,0
21.07.2018 02:00:00 21,1 13,3 16 9 36 20 NNW 1014,9 -
21.07.2018 01:00:00 22,6 13,4 14 8 34 18 NNW 1015,1 0,0
21.07.2018 00:00:00 24,1 13,7 14 8 34 18 NNW 1014,8 0,0
20.07.2018 23:00:00 26,0 14,1 13 7 27 14 NNW 1014,3 0,0
20.07.2018 22:00:00 27,7 14,3 10 5 23 13 NNW 1013,3 0,0
20.07.2018 21:00:00 23,3 16,1 7 4 23 12 SSW 1013,0 0,0
20.07.2018 20:00:00 26,6 16,8 12 6 21 11 WSW 1012,6 -
20.07.2018 19:00:00 26,6 16,8 12 7 26 14 SW 1013,0 0,0
20.07.2018 18:00:00 - - 16 8 30 16 SW - 0,0
20.07.2018 17:00:00 - - 16 9 30 16 WSW - 0,0
20.07.2018 16:00:00 - - 16 9 30 16 SW - 0,0
20.07.2018 15:00:00 26,8 16,1 16 9 27 15 SW 1014,8 0,0
20.07.2018 14:00:00 30,0 16,4 9 5 24 13 NW 1015,2 -
20.07.2018 13:00:00 27,6 16,2 11 6 27 15 NNW 1015,7 0,0
20.07.2018 12:00:00 25,4 16,2 13 7 33 18 NNW 1015,7 0,0
20.07.2018 11:00:00 23,6 15,9 16 9 35 19 NNW 1015,6 0,0
20.07.2018 10:00:00 22,4 16,2 16 8 34 18 NNW 1015,4 0,0
20.07.2018 09:00:00 20,7 15,7 14 7 38 20 NNW 1015,4 0,0
20.07.2018 08:00:00 19,2 15,4 12 7 24 13 NNW 1015,1 -
20.07.2018 07:00:00 18,8 15,1 10 6 29 15 NNW 1014,9 0,0
20.07.2018 06:00:00 18,8 15,1 12 7 27 15 NNW 1014,8 0,0
20.07.2018 05:00:00 18,9 14,8 12 6 34 18 NNW 1014,9 0,0
20.07.2018 04:00:00 19,4 14,4 12 6 29 16 NNW 1015,0 0,0
20.07.2018 03:00:00 20,3 14,4 15 8 34 19 NNW 1015,2 0,0
20.07.2018 02:00:00 21,1 14,5 16 9 40 22 NNW 1015,4 -
20.07.2018 01:00:00 22,2 14,3 16 9 36 19 NNW 1015,2 0,0
20.07.2018 00:00:00 23,5 14,5 16 8 31 17 NNW 1014,9 0,0
19.07.2018 23:00:00 24,9 15,3 13 7 27 15 NNW 1014,7 0,0
19.07.2018 22:00:00 21,5 15,8 6 3 12 6 SW 1014,1 0,0
19.07.2018 21:00:00 23,8 15,5 6 3 19 10 SW 1013,4 0,0
19.07.2018 20:00:00 24,7 15,9 13 7 24 13 SW 1013,3 -
19.07.2018 19:00:00 27,0 15,3 16 9 31 17 WSW 1013,7 0,0
19.07.2018 18:00:00 26,7 15,1 18 10 29 16 WSW 1014,3 0,0
19.07.2018 17:00:00 26,6 15,0 16 9 33 18 WSW 1014,4 0,0
19.07.2018 16:00:00 25,9 15,3 20 11 32 18 WSW 1015,0 0,0
19.07.2018 15:00:00 26,5 15,5 18 10 27 15 SW 1015,5 0,0
19.07.2018 14:00:00 29,7 13,9 5 3 21 12 NW 1015,4 -
19.07.2018 13:00:00 27,7 14,7 10 5 24 13 NNW 1015,7 0,0
19.07.2018 12:00:00 24,7 14,1 13 7 30 16 NNW 1015,9 0,0
19.07.2018 11:00:00 22,5 13,9 14 7 33 18 NNW 1015,7 0,0
19.07.2018 10:00:00 20,5 14,1 16 9 35 19 NNW 1015,5 0,0
19.07.2018 09:00:00 18,8 13,9 12 7 35 19 NNW 1015,3 0,0
19.07.2018 08:00:00 17,6 13,2 13 7 29 16 NNW 1014,8 -
19.07.2018 07:00:00 17,7 12,8 13 7 30 16 NNW 1014,4 0,0
19.07.2018 06:00:00 18,2 13,1 13 7 29 16 NNW 1014,5 0,0
19.07.2018 05:00:00 18,7 13,2 13 7 32 18 NNW 1014,6 0,0
19.07.2018 04:00:00 19,3 13,1 14 8 35 19 NNW 1014,2 0,0
19.07.2018 03:00:00 20,2 13,2 16 9 32 17 NNW 1014,1 0,0
19.07.2018 02:00:00 21,1 13,3 15 8 34 18 NNW 1014,3 -
19.07.2018 01:00:00 21,9 13,6 9 5 21 12 NNW 1014,5 0,0
19.07.2018 00:00:00 23,1 14,4 11 6 23 12 NNW 1014,0 0,0
18.07.2018 23:00:00 20,6 15,2 2 1 13 7 S 1013,8 0,0
18.07.2018 22:00:00 21,2 15,1 4 2 14 8 SW 1013,2 0,0
18.07.2018 21:00:00 22,9 15,7 9 5 22 12 SW 1013,3 0,0
18.07.2018 20:00:00 24,0 16,0 12 6 23 12 SW 1013,2 -
18.07.2018 19:00:00 24,3 15,0 14 8 23 12 SW 1013,5 0,0
18.07.2018 18:00:00 25,4 15,7 13 7 22 12 SW 1013,9 0,0
18.07.2018 17:00:00 25,5 16,1 14 8 27 14 SW - 0,0
18.07.2018 16:00:00 25,8 15,8 16 9 27 15 SW 1014,4 0,0
18.07.2018 15:00:00 26,5 15,9 16 9 26 14 SW 1014,7 0,0
18.07.2018 14:00:00 27,7 15,0 9 5 27 14 W 1014,8 -
18.07.2018 13:00:00 26,9 15,0 6 3 19 10 NNW 1015,0 0,0
18.07.2018 12:00:00 24,6 15,0 8 5 27 15 NNW - 0,0
18.07.2018 11:00:00 22,5 15,4 11 6 27 14 NNW - 0,0
18.07.2018 10:00:00 20,2 14,8 13 7 31 17 NNW - 0,0
18.07.2018 09:00:00 18,8 14,7 12 7 28 15 NNW 1014,6 0,0
18.07.2018 08:00:00 17,5 14,2 11 6 25 13 NNW 1014,2 -
18.07.2018 07:00:00 17,8 14,1 10 5 32 17 NNW 1013,5 0,0
18.07.2018 06:00:00 18,6 14,1 7 4 25 13 NNW - 0,0
18.07.2018 05:00:00 19,5 14,1 8 5 26 14 NNW 1012,9 0,0
18.07.2018 04:00:00 20,6 14,0 10 6 26 14 NNW 1012,9 0,0
18.07.2018 03:00:00 21,7 14,1 11 6 27 15 NNW 1012,9 0,0
18.07.2018 02:00:00 22,8 14,1 10 6 23 12 NNW 1012,9 -
18.07.2018 01:00:00 23,4 13,6 5 3 17 9 NNW 1013,0 0,0
18.07.2018 00:00:00 24,8 13,1 6 3 19 11 NNW 1012,6 0,0
17.07.2018 23:00:00 22,6 13,9 1 1 13 7 WNW 1011,6 0,0
17.07.2018 22:00:00 23,3 13,5 8 4 18 10 WSW 1010,9 0,0
17.07.2018 21:00:00 25,5 13,7 10 6 19 11 WSW 1010,6 0,0
17.07.2018 20:00:00 27,2 14,6 11 6 22 12 WSW 1010,8 -
17.07.2018 19:00:00 28,0 14,6 13 7 27 15 WSW 1011,1 0,0
17.07.2018 18:00:00 28,2 - 17 9 25 14 WSW - 0,0
17.07.2018 17:00:00 - - 13 7 24 13 SW - 0,0
17.07.2018 16:00:00 28,8 13,9 14 7 23 13 SSW 1012,3 0,0
17.07.2018 15:00:00 30,9 14,5 11 6 18 10 SSW - 0,0
17.07.2018 14:00:00 31,3 14,9 11 6 19 10 S 1013,4 -
17.07.2018 13:00:00 31,2 16,0 2 1 18 10 N 1013,9 0,0
17.07.2018 12:00:00 27,7 15,3 8 5 24 13 NNW 1014,2 0,0
17.07.2018 11:00:00 25,3 15,6 8 4 28 15 NNW 1014,2 0,0
17.07.2018 10:00:00 21,9 14,3 11 6 30 16 NNW 1014,4 0,0
17.07.2018 09:00:00 19,6 13,6 13 7 30 16 NNW 1014,3 0,0
17.07.2018 08:00:00 18,5 13,0 11 6 28 15 NNW 1014,5 -
17.07.2018 07:00:00 19,0 12,7 16 8 31 17 NNW 1014,2 0,0
17.07.2018 06:00:00 19,6 13,1 12 7 34 18 NNW - 0,0
17.07.2018 05:00:00 - - 14 8 32 17 NNW - 0,0
17.07.2018 04:00:00 21,3 13,9 13 7 34 18 NNW 1014,6 0,0
17.07.2018 03:00:00 22,1 14,2 14 7 30 16 NNW 1015,2 0,0
17.07.2018 02:00:00 22,8 14,6 14 8 30 16 NNW 1015,7 -
17.07.2018 01:00:00 23,5 14,8 15 8 29 16 NNW 1015,8 0,0
17.07.2018 00:00:00 24,2 15,4 13 7 27 15 NNW 1015,8 0,0
16.07.2018 23:00:00 21,0 16,2 6 4 15 8 NNW 1015,6 0,0
16.07.2018 22:00:00 21,0 16,0 7 4 19 11 WSW 1015,4 0,0
16.07.2018 21:00:00 21,7 16,2 10 6 24 13 WSW 1015,7 0,0
16.07.2018 20:00:00 22,4 16,0 14 8 28 15 SW 1016,0 -
16.07.2018 19:00:00 24,8 14,9 17 9 31 17 WSW 1016,1 0,0
16.07.2018 18:00:00 25,7 15,1 15 8 29 15 WSW 1016,9 0,0
16.07.2018 17:00:00 26,1 15,2 16 9 39 21 WSW 1017,5 0,0
16.07.2018 16:00:00 25,7 15,1 17 9 32 18 WSW 1017,9 0,0
16.07.2018 15:00:00 24,9 15,3 19 10 32 17 SW 1018,8 0,0
16.07.2018 14:00:00 24,6 15,0 14 8 27 15 WSW 1019,6 -
16.07.2018 13:00:00 24,3 15,0 14 8 26 14 WSW 1020,0 0,0
16.07.2018 12:00:00 24,0 14,4 7 4 17 9 NNW 1020,2 0,0
16.07.2018 11:00:00 21,8 14,4 7 4 24 13 N 1020,0 0,0
16.07.2018 10:00:00 20,0 14,3 8 4 28 15 N 1020,1 0,0
16.07.2018 09:00:00 18,5 15,3 5 3 19 10 NNW 1020,2 0,0
16.07.2018 08:00:00 17,0 14,6 11 6 23 13 NNW 1020,0 -
16.07.2018 07:00:00 17,1 14,5 12 6 24 13 NNW 1019,9 0,0
16.07.2018 06:00:00 17,4 14,9 9 5 17 9 NNW 1019,6 0,0
16.07.2018 05:00:00 17,5 14,6 4 2 10 6 NNW 1019,6 0,0
16.07.2018 04:00:00 17,9 14,2 0 0 11 6 N 1019,7 0,0

tt = Température de l'air
td = dewpoint
ff = Vitesse du vent
fx = gusts
dd = Direction du vent
ppp = reduced air pressure
rr = Quantités de précipitations

stations d'obs. à proximité